Ertholm — OVJX — position and weather

sailwx.info

Track history (hours):
 
Tides and Currents Weather Stations Pressure Air Temp Water Temp Dewpoint Dewpoint Depression Visibility Wind Speed Wind Dir Waves Ship Positions

Ertholm

Last reported at 2014-Sep-20 01:33 UTC. Time now 2014-Sep-20 01:59 UTC.
Position N 55°13' E 014°58'.

Length 38 m; draft 2.3 m.

Type: Ship. MMSI: 219000751.

Date/timePositionNaut miles runAvg speedWind from/ knotsBaromVisibWave heightAir tempDewpointWater temp
2014-Sep-20 01:33N 55°13' E 014°58'0 0.0
2014-Sep-20 00:33N 55°13' E 014°58'0 0.0
2014-Sep-19 23:33N 55°13' E 014°58'0 0.0
2014-Sep-19 22:33N 55°13' E 014°58'6 5.9
2014-Sep-19 21:33N 55°17' E 015°06'4 3.9
2014-Sep-19 20:33N 55°19' E 015°11'0 0.0
2014-Sep-19 19:32N 55°19' E 015°11'0 0.0
2014-Sep-19 18:33N 55°19' E 015°11'0 0.0
2014-Sep-19 17:33N 55°19' E 015°11'0 0.0
2014-Sep-19 16:33N 55°19' E 015°11'0 0.0
2014-Sep-19 15:33N 55°19' E 015°11'4 3.8
2014-Sep-19 14:33N 55°17' E 015°06'6 6.0
2014-Sep-19 13:33N 55°13' E 014°58'4 4.1
2014-Sep-19 12:33N 55°16' E 015°03'6 5.7
2014-Sep-19 11:33N 55°19' E 015°11'0 0.0
2014-Sep-19 10:33N 55°19' E 015°11'0 0.0
2014-Sep-19 09:33N 55°19' E 015°11'4 4.2
2014-Sep-19 08:33N 55°17' E 015°05'6 5.6
2014-Sep-19 07:33N 55°13' E 014°58'0 0.0
2014-Sep-19 06:33N 55°13' E 014°58'0 0.0
2014-Sep-19 05:33N 55°13' E 014°58'0 0.0
2014-Sep-19 04:33N 55°13' E 014°58'0 0.0
2014-Sep-19 03:33N 55°13' E 014°58'0 0.0
2014-Sep-19 02:32N 55°13' E 014°58'0 0.0
2014-Sep-19 01:33N 55°13' E 014°58'0 0.0
2014-Sep-19 00:33N 55°13' E 014°58'0 0.0
2014-Sep-18 23:33N 55°13' E 014°58'0 0.0
2014-Sep-18 22:32N 55°13' E 014°58'0 0.0
2014-Sep-18 21:33N 55°13' E 014°58'0 0.0
2014-Sep-18 20:33N 55°13' E 014°58'0 0.0
2014-Sep-18 19:33N 55°13' E 014°58'0 0.0
2014-Sep-18 18:33N 55°13' E 014°58'0 0.0
2014-Sep-18 17:33N 55°13' E 014°58'0 0.0
2014-Sep-18 16:33N 55°13' E 014°58'0 0.0
2014-Sep-18 15:33N 55°13' E 014°58'0 0.0
2014-Sep-18 14:33N 55°13' E 014°58'0 0.0
2014-Sep-18 13:33N 55°13' E 014°58'5 5.1
2014-Sep-18 12:34N 55°16' E 015°04'5 4.7
2014-Sep-18 11:33N 55°19' E 015°11'0 0.0
2014-Sep-18 10:33N 55°19' E 015°11'0 0.1
2014-Sep-18 09:33N 55°19' E 015°11'4 4.1
2014-Sep-18 08:33N 55°17' E 015°05'6 5.6
2014-Sep-18 07:33N 55°13' E 014°58'0 0.0
2014-Sep-18 06:33N 55°13' E 014°58'0 0.0
2014-Sep-18 05:33N 55°13' E 014°58'0 0.0
2014-Sep-18 04:33N 55°13' E 014°58'0 0.0
2014-Sep-18 03:33N 55°13' E 014°58'0 0.0
2014-Sep-18 02:28N 55°13' E 014°58'0 0.0
2014-Sep-18 01:33N 55°13' E 014°58'0 0.0
2014-Sep-18 00:33N 55°13' E 014°58'0 0.0
2014-Sep-17 23:33N 55°13' E 014°58'0 0.0
2014-Sep-17 22:33N 55°13' E 014°58'0 0.0
2014-Sep-17 21:33N 55°13' E 014°58'0 0.0
2014-Sep-17 20:33N 55°13' E 014°58'0 0.0
2014-Sep-17 19:33N 55°13' E 014°58'0 0.0
2014-Sep-17 18:33N 55°13' E 014°58'0 0.0
2014-Sep-17 17:33N 55°13' E 014°58'0 0.0
2014-Sep-17 16:32N 55°13' E 014°58'0 0.0
2014-Sep-17 15:33N 55°13' E 014°58'0 0.0
2014-Sep-17 14:33N 55°13' E 014°58'0 0.0
2014-Sep-17 13:33N 55°13' E 014°58'4 3.8
2014-Sep-17 12:34N 55°15' E 015°03'6 1.9
2014-Sep-17 09:24N 55°19' E 015°11'4 5.2
2014-Sep-17 08:33N 55°17' E 015°05'5 3.8
2014-Sep-17 07:08N 55°13' E 014°58'5 2.0
2014-Sep-17 04:33N 55°15' E 014°50'0 0.0
2014-Sep-17 03:33N 55°15' E 014°50'0 0.0
2014-Sep-17 02:28N 55°15' E 014°50'0 0.0
2014-Sep-17 00:27N 55°15' E 014°50'0 0.0
2014-Sep-16 23:07N 55°15' E 014°50'0 0.0
2014-Sep-16 22:26N 55°15' E 014°50'0 0.0
2014-Sep-16 21:31N 55°15' E 014°50'0 0.0
2014-Sep-16 20:33N 55°15' E 014°50'0 0.0
2014-Sep-16 19:32N 55°15' E 014°50'0 0.0
2014-Sep-16 18:33N 55°15' E 014°50'0 0.0
2014-Sep-16 17:30N 55°15' E 014°50'0 0.0
2014-Sep-16 16:33N 55°15' E 014°50'0 0.0
2014-Sep-16 15:29N 55°15' E 014°50'0 0.0
2014-Sep-16 14:28N 55°15' E 014°50'0 0.2
2014-Sep-16 13:33N 55°15' E 014°50'7 6.9
2014-Sep-16 12:33N 55°15' E 015°02'6 6.4
2014-Sep-16 11:33N 55°19' E 015°11'0 0.0
2014-Sep-16 10:33N 55°19' E 015°11'0 0.0
2014-Sep-16 09:33N 55°19' E 015°11'5 4.5
2014-Sep-16 08:33N 55°17' E 015°05'6 5.6
2014-Sep-16 07:31N 55°13' E 014°56'4 2.8
2014-Sep-16 06:10N 55°15' E 014°50'0 0.0
2014-Sep-15 23:18N 55°15' E 014°50'0 0.0
2014-Sep-15 22:30N 55°15' E 014°50'0 0.0
2014-Sep-15 21:16N 55°15' E 014°50'0 0.0
2014-Sep-15 20:29N 55°15' E 014°50'0 0.0
2014-Sep-15 19:29N 55°15' E 014°50'0 0.1
2014-Sep-15 13:33N 55°15' E 014°51'7 7.2
2014-Sep-15 12:33N 55°15' E 015°03'6 6.2
2014-Sep-15 11:33N 55°19' E 015°11'0 0.0
2014-Sep-15 10:33N 55°19' E 015°11'0 0.0
2014-Sep-15 09:33N 55°19' E 015°11'4 4.4
2014-Sep-15 08:33N 55°17' E 015°05'7 6.5
2014-Sep-15 07:33N 55°14' E 014°54'3 2.6
2014-Sep-15 06:34N 55°15' E 014°50'0 0.0
2014-Sep-15 05:30N 55°15' E 014°50'0 0.0
2014-Sep-15 04:30N 55°15' E 014°50'0 0.0
2014-Sep-15 03:14N 55°15' E 014°50'0 0.0
2014-Sep-15 02:29N 55°15' E 014°50'0 0.0
2014-Sep-15 01:33N 55°15' E 014°50'0 0.0
2014-Sep-15 00:33N 55°15' E 014°50'0 0.0
2014-Sep-14 23:33N 55°15' E 014°50'0 0.0
2014-Sep-14 22:33N 55°15' E 014°50'0 0.0
2014-Sep-14 21:32N 55°15' E 014°50'0 0.0
2014-Sep-14 20:33N 55°15' E 014°50'0 0.0
2014-Sep-14 19:32N 55°15' E 014°50'0 0.0
2014-Sep-14 18:33N 55°15' E 014°50'0 0.0
2014-Sep-14 17:32N 55°15' E 014°50'0 0.0
2014-Sep-14 16:25N 55°15' E 014°50'0 0.0
2014-Sep-14 15:29N 55°15' E 014°50'0 0.0
2014-Sep-14 14:29N 55°15' E 014°50'0 0.0
2014-Sep-14 13:31N 55°15' E 014°50'7 7.0
2014-Sep-14 12:33N 55°17' E 015°01'6 1.9
2014-Sep-14 09:24N 55°19' E 015°11'910.1
2014-Sep-14 08:33N 55°17' E 014°57'4 0.1
2014-Sep-12 13:31N 55°15' E 014°51'7 7.5
2014-Sep-12 12:33N 55°15' E 015°04'6 5.7
2014-Sep-12 11:33N 55°19' E 015°11'0 0.0
2014-Sep-12 10:33N 55°19' E 015°11'0 0.0
2014-Sep-12 09:33N 55°19' E 015°11'5 4.6
2014-Sep-12 08:33N 55°16' E 015°05'5 5.2
2014-Sep-12 07:33N 55°13' E 014°58'5 4.7
2014-Sep-12 06:33N 55°15' E 014°50'0 0.0
2014-Sep-12 05:33N 55°15' E 014°50'0 0.0
2014-Sep-12 04:33N 55°15' E 014°50'0 0.0
2014-Sep-12 03:33N 55°15' E 014°50'0 0.0
2014-Sep-12 02:30N 55°15' E 014°50'0 0.0
2014-Sep-12 01:26N 55°15' E 014°50'0 0.0
2014-Sep-11 17:32N 55°15' E 014°50'0 0.0
2014-Sep-11 16:26N 55°15' E 014°50'5 5.8
2014-Sep-11 15:33N 55°13' E 014°58'8 7.7
2014-Sep-11 14:34N 55°18' E 015°08'4 3.8
2014-Sep-11 13:33N 55°15' E 015°03'2 1.5
2014-Sep-11 12:33N 55°17' E 015°05'4 4.5
2014-Sep-11 11:33N 55°19' E 015°11'9 9.3
2014-Sep-11 10:33N 55°13' E 014°59'5 5.0
2014-Sep-11 09:33N 55°17' E 015°05'2 1.7
2014-Sep-11 08:33N 55°18' E 015°07'7 7.2
2014-Sep-11 07:33N 55°13' E 014°58'0 0.0
2014-Sep-11 06:34N 55°13' E 014°58'0 0.0
2014-Sep-11 05:33N 55°13' E 014°58'0 0.0
2014-Sep-11 04:33N 55°13' E 014°58'0 0.0
2014-Sep-11 03:33N 55°13' E 014°58'0 0.0
2014-Sep-11 02:34N 55°13' E 014°58'0 0.0
2014-Sep-11 01:34N 55°13' E 014°58'0 0.0
2014-Sep-11 00:32N 55°13' E 014°58'0 0.0
2014-Sep-10 23:33N 55°13' E 014°58'0 0.0
2014-Sep-10 22:34N 55°13' E 014°58'0 0.0
2014-Sep-10 21:33N 55°13' E 014°58'0 0.0
2014-Sep-10 20:33N 55°13' E 014°58'0 0.0
2014-Sep-10 19:33N 55°13' E 014°58'0 0.0
2014-Sep-10 18:33N 55°13' E 014°58'0 0.0
2014-Sep-10 17:33N 55°13' E 014°58'0 0.0
2014-Sep-10 16:33N 55°13' E 014°58'0 0.0
2014-Sep-10 15:34N 55°13' E 014°58'9 8.6
2014-Sep-10 14:33N 55°18' E 015°10'4 4.5
2014-Sep-10 13:33N 55°16' E 015°04'0 0.1
2014-Sep-10 12:33N 55°16' E 015°04'6 5.5
2014-Sep-10 11:33N 55°19' E 015°11'10 9.7
2014-Sep-10 10:33N 55°13' E 014°58'7 6.7
2014-Sep-10 09:33N 55°17' E 015°07'1 0.9
2014-Sep-10 08:34N 55°17' E 015°06'6 6.0
2014-Sep-10 07:34N 55°13' E 014°58'0 0.0
2014-Sep-10 06:33N 55°13' E 014°58'0 0.0
2014-Sep-10 05:33N 55°13' E 014°58'0 0.0
2014-Sep-10 04:34N 55°13' E 014°58'0 0.0
2014-Sep-10 03:33N 55°13' E 014°58'0 0.0
2014-Sep-10 02:33N 55°13' E 014°58'  
Track history (hours):
 
Tides and Currents Weather Stations Pressure Air Temp Water Temp Dewpoint Dewpoint Depression Visibility Wind Speed Wind Dir Waves Ship Positions

Ertholm

Last reported at 2014-Sep-20 01:33 UTC. Time now 2014-Sep-20 01:59 UTC.
Position N 55°13' E 014°58'.

Length 38 m; draft 2.3 m.

Type: Ship. MMSI: 219000751.

Date/timePositionNaut miles runAvg speedWind from/ knotsBaromVisibWave heightAir tempDewpointWater temp
2014-Sep-20 01:33N 55°13' E 014°58'0 0.0
2014-Sep-20 00:33N 55°13' E 014°58'0 0.0
2014-Sep-19 23:33N 55°13' E 014°58'0 0.0
2014-Sep-19 22:33N 55°13' E 014°58'6 5.9
2014-Sep-19 21:33N 55°17' E 015°06'4 3.9
2014-Sep-19 20:33N 55°19' E 015°11'0 0.0
2014-Sep-19 19:32N 55°19' E 015°11'0 0.0
2014-Sep-19 18:33N 55°19' E 015°11'0 0.0
2014-Sep-19 17:33N 55°19' E 015°11'0 0.0
2014-Sep-19 16:33N 55°19' E 015°11'0 0.0
2014-Sep-19 15:33N 55°19' E 015°11'4 3.8
2014-Sep-19 14:33N 55°17' E 015°06'6 6.0
2014-Sep-19 13:33N 55°13' E 014°58'4 4.1
2014-Sep-19 12:33N 55°16' E 015°03'6 5.7
2014-Sep-19 11:33N 55°19' E 015°11'0 0.0
2014-Sep-19 10:33N 55°19' E 015°11'0 0.0
2014-Sep-19 09:33N 55°19' E 015°11'4 4.2
2014-Sep-19 08:33N 55°17' E 015°05'6 5.6
2014-Sep-19 07:33N 55°13' E 014°58'0 0.0
2014-Sep-19 06:33N 55°13' E 014°58'0 0.0
2014-Sep-19 05:33N 55°13' E 014°58'0 0.0
2014-Sep-19 04:33N 55°13' E 014°58'0 0.0
2014-Sep-19 03:33N 55°13' E 014°58'0 0.0
2014-Sep-19 02:32N 55°13' E 014°58'0 0.0
2014-Sep-19 01:33N 55°13' E 014°58'0 0.0
2014-Sep-19 00:33N 55°13' E 014°58'0 0.0
2014-Sep-18 23:33N 55°13' E 014°58'0 0.0
2014-Sep-18 22:32N 55°13' E 014°58'0 0.0
2014-Sep-18 21:33N 55°13' E 014°58'0 0.0
2014-Sep-18 20:33N 55°13' E 014°58'0 0.0
2014-Sep-18 19:33N 55°13' E 014°58'0 0.0
2014-Sep-18 18:33N 55°13' E 014°58'0 0.0
2014-Sep-18 17:33N 55°13' E 014°58'0 0.0
2014-Sep-18 16:33N 55°13' E 014°58'0 0.0
2014-Sep-18 15:33N 55°13' E 014°58'0 0.0
2014-Sep-18 14:33N 55°13' E 014°58'0 0.0
2014-Sep-18 13:33N 55°13' E 014°58'5 5.1
2014-Sep-18 12:34N 55°16' E 015°04'5 4.7
2014-Sep-18 11:33N 55°19' E 015°11'0 0.0
2014-Sep-18 10:33N 55°19' E 015°11'0 0.1
2014-Sep-18 09:33N 55°19' E 015°11'4 4.1
2014-Sep-18 08:33N 55°17' E 015°05'6 5.6
2014-Sep-18 07:33N 55°13' E 014°58'0 0.0
2014-Sep-18 06:33N 55°13' E 014°58'0 0.0
2014-Sep-18 05:33N 55°13' E 014°58'0 0.0
2014-Sep-18 04:33N 55°13' E 014°58'0 0.0
2014-Sep-18 03:33N 55°13' E 014°58'0 0.0
2014-Sep-18 02:28N 55°13' E 014°58'0 0.0
2014-Sep-18 01:33N 55°13' E 014°58'0 0.0
2014-Sep-18 00:33N 55°13' E 014°58'0 0.0
2014-Sep-17 23:33N 55°13' E 014°58'0 0.0
2014-Sep-17 22:33N 55°13' E 014°58'0 0.0
2014-Sep-17 21:33N 55°13' E 014°58'0 0.0
2014-Sep-17 20:33N 55°13' E 014°58'0 0.0
2014-Sep-17 19:33N 55°13' E 014°58'0 0.0
2014-Sep-17 18:33N 55°13' E 014°58'0 0.0
2014-Sep-17 17:33N 55°13' E 014°58'0 0.0
2014-Sep-17 16:32N 55°13' E 014°58'0 0.0
2014-Sep-17 15:33N 55°13' E 014°58'0 0.0
2014-Sep-17 14:33N 55°13' E 014°58'0 0.0
2014-Sep-17 13:33N 55°13' E 014°58'4 3.8
2014-Sep-17 12:34N 55°15' E 015°03'6 1.9
2014-Sep-17 09:24N 55°19' E 015°11'4 5.2
2014-Sep-17 08:33N 55°17' E 015°05'5 3.8
2014-Sep-17 07:08N 55°13' E 014°58'5 2.0
2014-Sep-17 04:33N 55°15' E 014°50'0 0.0
2014-Sep-17 03:33N 55°15' E 014°50'0 0.0
2014-Sep-17 02:28N 55°15' E 014°50'0 0.0
2014-Sep-17 00:27N 55°15' E 014°50'0 0.0
2014-Sep-16 23:07N 55°15' E 014°50'0 0.0
2014-Sep-16 22:26N 55°15' E 014°50'0 0.0
2014-Sep-16 21:31N 55°15' E 014°50'0 0.0
2014-Sep-16 20:33N 55°15' E 014°50'0 0.0
2014-Sep-16 19:32N 55°15' E 014°50'0 0.0
2014-Sep-16 18:33N 55°15' E 014°50'0 0.0
2014-Sep-16 17:30N 55°15' E 014°50'0 0.0
2014-Sep-16 16:33N 55°15' E 014°50'0 0.0
2014-Sep-16 15:29N 55°15' E 014°50'0 0.0
2014-Sep-16 14:28N 55°15' E 014°50'0 0.2
2014-Sep-16 13:33N 55°15' E 014°50'7 6.9
2014-Sep-16 12:33N 55°15' E 015°02'6 6.4
2014-Sep-16 11:33N 55°19' E 015°11'0 0.0
2014-Sep-16 10:33N 55°19' E 015°11'0 0.0
2014-Sep-16 09:33N 55°19' E 015°11'5 4.5
2014-Sep-16 08:33N 55°17' E 015°05'6 5.6
2014-Sep-16 07:31N 55°13' E 014°56'4 2.8
2014-Sep-16 06:10N 55°15' E 014°50'0 0.0
2014-Sep-15 23:18N 55°15' E 014°50'0 0.0
2014-Sep-15 22:30N 55°15' E 014°50'0 0.0
2014-Sep-15 21:16N 55°15' E 014°50'0 0.0
2014-Sep-15 20:29N 55°15' E 014°50'0 0.0
2014-Sep-15 19:29N 55°15' E 014°50'0 0.1
2014-Sep-15 13:33N 55°15' E 014°51'7 7.2
2014-Sep-15 12:33N 55°15' E 015°03'6 6.2
2014-Sep-15 11:33N 55°19' E 015°11'0 0.0
2014-Sep-15 10:33N 55°19' E 015°11'0 0.0
2014-Sep-15 09:33N 55°19' E 015°11'4 4.4
2014-Sep-15 08:33N 55°17' E 015°05'7 6.5
2014-Sep-15 07:33N 55°14' E 014°54'3 2.6
2014-Sep-15 06:34N 55°15' E 014°50'0 0.0
2014-Sep-15 05:30N 55°15' E 014°50'0 0.0
2014-Sep-15 04:30N 55°15' E 014°50'0 0.0
2014-Sep-15 03:14N 55°15' E 014°50'0 0.0
2014-Sep-15 02:29N 55°15' E 014°50'0 0.0
2014-Sep-15 01:33N 55°15' E 014°50'0 0.0
2014-Sep-15 00:33N 55°15' E 014°50'0 0.0
2014-Sep-14 23:33N 55°15' E 014°50'0 0.0
2014-Sep-14 22:33N 55°15' E 014°50'0 0.0
2014-Sep-14 21:32N 55°15' E 014°50'0 0.0
2014-Sep-14 20:33N 55°15' E 014°50'0 0.0
2014-Sep-14 19:32N 55°15' E 014°50'0 0.0
2014-Sep-14 18:33N 55°15' E 014°50'0 0.0
2014-Sep-14 17:32N 55°15' E 014°50'0 0.0
2014-Sep-14 16:25N 55°15' E 014°50'0 0.0
2014-Sep-14 15:29N 55°15' E 014°50'0 0.0
2014-Sep-14 14:29N 55°15' E 014°50'0 0.0
2014-Sep-14 13:31N 55°15' E 014°50'7 7.0
2014-Sep-14 12:33N 55°17' E 015°01'6 1.9
2014-Sep-14 09:24N 55°19' E 015°11'910.1
2014-Sep-14 08:33N 55°17' E 014°57'4 0.1
2014-Sep-12 13:31N 55°15' E 014°51'7 7.5
2014-Sep-12 12:33N 55°15' E 015°04'6 5.7
2014-Sep-12 11:33N 55°19' E 015°11'0 0.0
2014-Sep-12 10:33N 55°19' E 015°11'0 0.0
2014-Sep-12 09:33N 55°19' E 015°11'5 4.6
2014-Sep-12 08:33N 55°16' E 015°05'5 5.2
2014-Sep-12 07:33N 55°13' E 014°58'5 4.7
2014-Sep-12 06:33N 55°15' E 014°50'0 0.0
2014-Sep-12 05:33N 55°15' E 014°50'0 0.0
2014-Sep-12 04:33N 55°15' E 014°50'0 0.0
2014-Sep-12 03:33N 55°15' E 014°50'0 0.0
2014-Sep-12 02:30N 55°15' E 014°50'0 0.0
2014-Sep-12 01:26N 55°15' E 014°50'0 0.0
2014-Sep-11 17:32N 55°15' E 014°50'0 0.0
2014-Sep-11 16:26N 55°15' E 014°50'5 5.8
2014-Sep-11 15:33N 55°13' E 014°58'8 7.7
2014-Sep-11 14:34N 55°18' E 015°08'4 3.8
2014-Sep-11 13:33N 55°15' E 015°03'2 1.5
2014-Sep-11 12:33N 55°17' E 015°05'4 4.5
2014-Sep-11 11:33N 55°19' E 015°11'9 9.3
2014-Sep-11 10:33N 55°13' E 014°59'5 5.0
2014-Sep-11 09:33N 55°17' E 015°05'2 1.7
2014-Sep-11 08:33N 55°18' E 015°07'7 7.2
2014-Sep-11 07:33N 55°13' E 014°58'0 0.0
2014-Sep-11 06:34N 55°13' E 014°58'0 0.0
2014-Sep-11 05:33N 55°13' E 014°58'0 0.0
2014-Sep-11 04:33N 55°13' E 014°58'0 0.0
2014-Sep-11 03:33N 55°13' E 014°58'0 0.0
2014-Sep-11 02:34N 55°13' E 014°58'0 0.0
2014-Sep-11 01:34N 55°13' E 014°58'0 0.0
2014-Sep-11 00:32N 55°13' E 014°58'0 0.0
2014-Sep-10 23:33N 55°13' E 014°58'0 0.0
2014-Sep-10 22:34N 55°13' E 014°58'0 0.0
2014-Sep-10 21:33N 55°13' E 014°58'0 0.0
2014-Sep-10 20:33N 55°13' E 014°58'0 0.0
2014-Sep-10 19:33N 55°13' E 014°58'0 0.0
2014-Sep-10 18:33N 55°13' E 014°58'0 0.0
2014-Sep-10 17:33N 55°13' E 014°58'0 0.0
2014-Sep-10 16:33N 55°13' E 014°58'0 0.0
2014-Sep-10 15:34N 55°13' E 014°58'9 8.6
2014-Sep-10 14:33N 55°18' E 015°10'4 4.5
2014-Sep-10 13:33N 55°16' E 015°04'0 0.1
2014-Sep-10 12:33N 55°16' E 015°04'6 5.5
2014-Sep-10 11:33N 55°19' E 015°11'10 9.7
2014-Sep-10 10:33N 55°13' E 014°58'7 6.7
2014-Sep-10 09:33N 55°17' E 015°07'1 0.9
2014-Sep-10 08:34N 55°17' E 015°06'6 6.0
2014-Sep-10 07:34N 55°13' E 014°58'0 0.0
2014-Sep-10 06:33N 55°13' E 014°58'0 0.0
2014-Sep-10 05:33N 55°13' E 014°58'0 0.0
2014-Sep-10 04:34N 55°13' E 014°58'0 0.0
2014-Sep-10 03:33N 55°13' E 014°58'0 0.0
2014-Sep-10 02:33N 55°13' E 014°58'  

Dump ship's entire track history